Aérodrome :







RETROUVEZ-NOUS SUR...

 
LOGIN :

S'inscrire | Disclaimer

   EN    FR    IT 

 









Légende :    VFR   VFR Marginal   IFR   IFR Intensif   IFR Très Intensif
Visi : 
Plafond : 
>= 8 km
>= 3000ft
5 à 8 km
1000 à 3000 ft
1500m à 5 km
500 à 1000 ft
800 à 1500m
200 à 500 ft
< 800m
< 200 ft
Symboles :   Orages  Brouillard  Fortes neiges  Fortes précipitations  Vent > 20 kt






- Altitude de l'aérodrome : 1270 ft
- Code IATA : YMT


CYMT - Chapais

DERNIER METAR :
  • 082043Z AUTO 21017G26KT 1SM -SN BKN012 OVC020 M03/M05 A2963 RMK SLP061

METARs EXPIRÉS :
  • 082006Z AUTO 21018G29KT 3/4SM -SN SCT013 OVC023 M03/M05 A2963 RMK SLP060
  • 081954Z AUTO 21016G27KT 1SM -SN SCT013 OVC021 M03/M05 A2963 RMK SLP060
  • 081900Z AUTO 21020G29KT 5/8SM -SN VV013 M04/M05 A2963 RMK SLP060
  • 081800Z AUTO 21021G31KT 1/2SM SN FEW010 OVC014 M04/M05 A2965 RMK SLP067

TAF TAF CYMT
Valide du 08 à 18h jusqu'au 09 à 01h UTC


081738Z 0818/0901 19015G25KT 3/4SM -SN BLSN OVC008
TEMPO 0818/0901 3SM -SN OVC015 RMK FCST BASED ON AUTO OBS. NXT FCST WILL BE ISSUED AT 091245Z



MET'MAP, la Météo Aéronautique d'un coup d'oeil ! - Copyright ORBIFLY Décembre 2007 - Disclaimer

ORBIFLY MET'MAP TEAM :

Programmation & Développement : Alexandra Zaïnal
Sur une idée originale de : Baudouin d'Aumeries
Assistance à la programmation : Marc-Olivier Méhu
Soutien technique & logistique : Manuel Goepfert

Contact : metmap@orbifly.com




SOURCES & CREDITS :

   NOAA